Time;durP1;ratioP1;P1;durP2;ratioP2;P2;SDS_P1;SDS_P2;PMS_P1;PMS_P2;Temp;Humidity;BMP_temperature;BMP_pressure;BME280_temperature;BME280_humidity;BME280_pressure;Samples;Min_cycle;Max_cycle;Signal;HPM_P1;HPM_P2
2021/07/29 00:00:01;;;;;;;5.78;3.72;;;;;;;23.57;73.46;99802.06;5054476;28;20049;-75
2021/07/29 00:02:29;;;;;;;11.23;4.50;;;;;;;23.49;73.76;99791.28;5053889;28;20447;-75
2021/07/29 00:04:58;;;;;;;8.77;5.07;;;;;;;23.41;74.33;99809.38;5054153;28;20121;-75
2021/07/29 00:07:26;;;;;;;7.32;4.80;;;;;;;23.46;74.18;99816.16;5054044;28;20052;-74
2021/07/29 00:09:55;;;;;;;8.88;4.57;;;;;;;23.30;75.14;99820.72;5054154;28;20106;-75
2021/07/29 00:12:25;;;;;;;8.73;4.75;;;;;;;23.28;75.42;99814.63;5054289;28;20037;-75
2021/07/29 00:14:54;;;;;;;8.57;5.20;;;;;;;23.31;74.98;99807.94;5053644;28;20063;-74
2021/07/29 00:19:02;;;;;;;8.05;4.82;;;;;;;23.31;75.18;99803.34;5053826;28;20041;-74
2021/07/29 00:20:20;;;;;;;6.75;4.57;;;;;;;23.23;75.38;99803.41;5053635;28;20381;-74
2021/07/29 00:22:51;;;;;;;9.10;4.60;;;;;;;23.17;75.91;99838.69;5053606;28;20059;-74
2021/07/29 00:25:20;;;;;;;8.80;5.30;;;;;;;23.07;76.63;99830.78;5053794;28;20492;-74
2021/07/29 00:27:51;;;;;;;10.13;5.18;;;;;;;22.96;77.06;99829.31;5053408;28;20071;-76
2021/07/29 00:30:23;;;;;;;8.27;5.05;;;;;;;22.95;77.50;99822.19;5053767;28;20099;-77
2021/07/29 00:32:52;;;;;;;8.25;4.68;;;;;;;22.95;77.31;99810.47;5053269;28;20060;-74
2021/07/29 00:35:20;;;;;;;7.55;4.68;;;;;;;22.99;77.01;99799.06;5053866;28;20041;-75
2021/07/29 00:37:51;;;;;;;7.25;4.97;;;;;;;23.02;76.85;99804.13;5053309;28;20049;-73
2021/07/29 00:40:21;;;;;;;7.25;4.97;;;;;;;23.03;76.88;99783.22;5053454;28;20380;-74
2021/07/29 00:42:51;;;;;;;7.15;4.90;;;;;;;23.08;76.23;99810.72;5053079;28;20505;-74
2021/07/29 00:45:19;;;;;;;10.40;4.95;;;;;;;23.10;76.02;99808.66;5053361;28;20045;-75
2021/07/29 00:47:48;;;;;;;7.85;5.38;;;;;;;23.08;76.01;99816.16;5052211;28;20049;-75
2021/07/29 00:50:35;;;;;;;8.55;5.20;;;;;;;23.03;76.35;99813.97;5053275;28;20099;-75
2021/07/29 00:53:06;;;;;;;8.50;5.53;;;;;;;23.05;75.88;99825.50;5053278;28;20044;-75
2021/07/29 00:55:34;;;;;;;9.52;5.80;;;;;;;23.01;76.06;99812.47;5052802;28;20079;-75
2021/07/29 00:58:04;;;;;;;12.23;5.75;;;;;;;22.92;76.64;99821.72;5053373;28;20423;-74
2021/07/29 01:00:32;;;;;;;11.13;5.88;;;;;;;22.76;77.60;99795.47;5052065;28;20132;-76
2021/07/29 01:03:01;;;;;;;10.93;6.07;;;;;;;22.72;77.66;99795.00;5052999;28;20045;-75
2021/07/29 01:05:29;;;;;;;7.88;5.70;;;;;;;22.74;77.46;99802.97;5053011;28;20045;-75
2021/07/29 01:07:57;;;;;;;9.00;5.65;;;;;;;22.74;77.54;99801.09;5053013;28;20047;-78
2021/07/29 01:10:26;;;;;;;10.75;6.03;;;;;;;22.66;77.28;99812.03;5053351;28;20045;-78
2021/07/29 01:12:54;;;;;;;10.07;6.28;;;;;;;22.72;77.59;99824.91;5052916;28;20087;-78
2021/07/29 01:15:24;;;;;;;9.50;6.47;;;;;;;22.78;77.26;99829.63;5053022;28;20090;-76
2021/07/29 01:17:53;;;;;;;7.75;5.68;;;;;;;22.76;76.97;99828.09;5052754;28;20921;-75
2021/07/29 01:20:23;;;;;;;8.63;5.93;;;;;;;22.77;76.95;99840.66;5052976;28;20041;-78
2021/07/29 01:22:51;;;;;;;10.88;6.05;;;;;;;22.84;76.64;99861.53;5053113;28;20053;-78
2021/07/29 01:25:19;;;;;;;9.30;6.28;;;;;;;22.81;76.63;99872.75;5052794;28;20053;-76
2021/07/29 01:27:48;;;;;;;9.35;5.90;;;;;;;22.83;76.41;99862.53;5052801;28;20037;-77
2021/07/29 01:30:16;;;;;;;9.20;6.13;;;;;;;22.82;76.17;99868.16;5053069;28;20041;-76
2021/07/29 01:32:45;;;;;;;9.18;5.38;;;;;;;22.80;75.98;99868.34;5052431;28;20049;-77
2021/07/29 01:35:14;;;;;;;8.77;5.63;;;;;;;22.70;76.39;99837.84;5052665;28;20063;-76
2021/07/29 01:37:46;;;;;;;11.15;6.43;;;;;;;22.71;76.02;99828.66;5052284;28;20045;-74
2021/07/29 01:40:18;;;;;;;10.95;6.30;;;;;;;22.78;75.67;99805.16;5052890;28;20061;-75
2021/07/29 01:42:46;;;;;;;10.65;5.93;;;;;;;22.70;75.66;99809.81;5052438;28;20044;-76
2021/07/29 01:45:14;;;;;;;10.55;5.93;;;;;;;22.72;75.15;99803.16;5052977;28;20058;-75
2021/07/29 01:47:43;;;;;;;8.40;6.28;;;;;;;22.70;75.18;99805.22;5052226;28;20461;-76
2021/07/29 01:50:12;;;;;;;8.63;5.75;;;;;;;22.70;74.94;99788.06;5052547;28;20048;-74
2021/07/29 01:52:40;;;;;;;9.07;5.38;;;;;;;22.64;74.79;99781.47;5052375;28;20055;-75
2021/07/29 01:55:10;;;;;;;9.20;6.32;;;;;;;22.61;75.11;99789.13;5052632;28;20095;-74
2021/07/29 01:57:38;;;;;;;9.02;5.78;;;;;;;22.63;74.98;99782.50;5052468;28;20071;-75
2021/07/29 02:00:08;;;;;;;9.82;6.00;;;;;;;22.63;74.66;99774.34;5052733;28;20044;-74
2021/07/29 02:02:36;;;;;;;7.53;5.53;;;;;;;22.63;74.31;99809.66;5052654;28;20045;-77
2021/07/29 02:05:07;;;;;;;7.32;5.43;;;;;;;22.51;74.65;99817.41;5052707;28;20131;-76
2021/07/29 02:07:36;;;;;;;7.57;5.28;;;;;;;22.46;74.55;99808.09;5052397;28;20055;-76
2021/07/29 02:10:05;;;;;;;9.45;4.55;;;;;;;22.30;74.54;99797.34;5052384;28;20037;-76
2021/07/29 02:12:34;;;;;;;6.72;3.40;;;;;;;22.20;74.65;99803.84;5056102;28;20099;-75
2021/07/29 02:15:03;;;;;;;9.07;5.22;;;;;;;22.05;75.43;99831.88;5056365;28;20045;-76
2021/07/29 02:17:33;;;;;;;7.65;5.00;;;;;;;22.10;74.55;99852.09;5056359;28;20045;-76
2021/07/29 02:20:01;;;;;;;6.13;4.07;;;;;;;22.06;74.32;99850.69;5056358;28;20437;-76
2021/07/29 02:22:30;;;;;;;8.30;4.22;;;;;;;22.05;74.25;99865.31;5056052;28;20061;-76
2021/07/29 02:24:58;;;;;;;9.35;5.20;;;;;;;22.02;73.71;99854.81;5055781;28;20491;-76
2021/07/29 02:27:27;;;;;;;6.80;4.68;;;;;;;22.02;73.50;99865.66;5055851;28;20049;-76
2021/07/29 02:29:58;;;;;;;7.82;4.88;;;;;;;21.98;73.62;99864.31;5055965;28;20051;-75
2021/07/29 02:32:27;;;;;;;8.45;4.75;;;;;;;21.87;72.85;99856.53;5056089;28;20136;-76
2021/07/29 02:34:57;;;;;;;6.63;4.35;;;;;;;21.88;73.24;99882.66;5055874;28;20047;-76
2021/07/29 02:37:26;;;;;;;5.45;3.53;;;;;;;21.80;72.54;99875.38;5055733;28;20055;-76
2021/07/29 02:39:55;;;;;;;5.90;2.95;;;;;;;21.53;72.72;99873.94;5055328;28;20045;-76
2021/07/29 02:42:26;;;;;;;6.63;3.47;;;;;;;21.65;72.79;99875.25;5055951;28;20037;-74
2021/07/29 02:44:55;;;;;;;8.40;3.38;;;;;;;21.64;72.43;99895.28;5055443;28;20409;-74
2021/07/29 02:47:24;;;;;;;5.72;3.67;;;;;;;21.64;72.21;99894.44;5055798;28;20372;-74
2021/07/29 02:49:53;;;;;;;7.70;3.85;;;;;;;21.46;72.61;99902.75;5055109;28;20047;-74
2021/07/29 02:52:21;;;;;;;7.30;3.95;;;;;;;21.52;72.32;99899.38;5055432;28;20095;-74
2021/07/29 02:54:50;;;;;;;7.25;4.22;;;;;;;21.55;71.80;99893.59;5055333;28;20053;-74
2021/07/29 02:57:19;;;;;;;9.82;4.22;;;;;;;21.56;71.36;99895.28;5055526;28;20045;-74
2021/07/29 02:59:47;;;;;;;8.35;3.60;;;;;;;21.55;70.92;99885.47;5054986;28;20049;-75
2021/07/29 03:02:15;;;;;;;8.32;3.75;;;;;;;21.63;70.66;99882.75;5055255;28;20159;-74
2021/07/29 03:04:45;;;;;;;8.63;3.78;;;;;;;21.67;70.08;99878.66;5054812;28;20049;-74
2021/07/29 03:07:13;;;;;;;6.10;3.35;;;;;;;21.50;70.60;99871.53;5055479;28;20045;-75
2021/07/29 03:09:42;;;;;;;6.47;3.22;;;;;;;21.55;70.51;99876.47;5055216;28;20040;-76
2021/07/29 03:12:10;;;;;;;5.88;3.60;;;;;;;21.49;70.73;99874.44;5055228;28;20099;-76
2021/07/29 03:14:41;;;;;;;4.63;2.75;;;;;;;21.52;71.07;99902.09;5054869;28;20048;-76
2021/07/29 03:17:09;;;;;;;5.18;2.80;;;;;;;21.35;72.15;99895.81;5055091;28;20041;-76
2021/07/29 03:19:37;;;;;;;4.00;2.20;;;;;;;21.25;73.52;99888.84;5055093;28;20053;-76
2021/07/29 03:22:07;;;;;;;6.50;3.30;;;;;;;21.11;75.05;99887.63;5054225;28;20454;-76
2021/07/29 03:24:37;;;;;;;6.00;2.85;;;;;;;20.95;76.01;99899.34;5055136;28;20045;-78
2021/07/29 03:27:05;;;;;;;5.90;2.95;;;;;;;20.88;76.57;99898.31;5054691;28;20450;-76
2021/07/29 03:29:34;;;;;;;4.45;2.80;;;;;;;20.85;76.80;99896.78;5054825;28;20103;-75
2021/07/29 03:32:02;;;;;;;5.05;3.00;;;;;;;20.79;77.08;99893.88;5054376;28;20079;-75
2021/07/29 03:34:30;;;;;;;5.75;2.70;;;;;;;20.88;76.73;99882.03;5054072;28;20139;-74
2021/07/29 03:36:59;;;;;;;4.85;2.85;;;;;;;20.89;77.25;99883.72;5054523;28;20052;-74
2021/07/29 03:39:28;;;;;;;5.45;2.60;;;;;;;20.87;77.09;99874.94;5054862;28;20487;-74
2021/07/29 03:41:56;;;;;;;4.43;2.88;;;;;;;20.86;77.59;99884.06;5054330;28;20090;-74
2021/07/29 03:44:24;;;;;;;6.07;3.15;;;;;;;20.99;76.56;99880.84;5054637;28;20368;-74
2021/07/29 03:46:53;;;;;;;5.13;3.03;;;;;;;20.96;76.93;99881.22;5054301;28;20044;-74
2021/07/29 03:49:21;;;;;;;6.60;3.05;;;;;;;20.94;77.26;99886.81;5053830;28;20454;-75
2021/07/29 03:51:49;;;;;;;5.53;3.08;;;;;;;20.97;76.91;99899.16;5054211;28;20041;-74
2021/07/29 03:54:17;;;;;;;6.78;3.30;;;;;;;21.05;76.90;99894.59;5054460;28;20063;-75
2021/07/29 03:56:47;;;;;;;5.38;3.25;;;;;;;21.15;76.16;99902.56;5053845;28;20049;-75
2021/07/29 03:59:15;;;;;;;8.00;3.35;;;;;;;21.32;75.86;99912.41;5054438;28;20045;-75
2021/07/29 04:01:43;;;;;;;7.53;3.72;;;;;;;21.35;75.73;99908.53;5054172;28;20486;-75
2021/07/29 04:04:12;;;;;;;6.45;3.72;;;;;;;21.29;75.69;99918.19;5054406;28;20052;-75
2021/07/29 04:06:40;;;;;;;5.60;3.55;;;;;;;21.39;75.23;99918.88;5054002;28;20091;-76
2021/07/29 04:09:08;;;;;;;7.40;3.78;;;;;;;21.39;75.76;99921.59;5053968;28;20063;-76
2021/07/29 04:11:37;;;;;;;5.88;3.97;;;;;;;21.29;75.81;99914.63;5053957;28;20099;-76
2021/07/29 04:14:07;;;;;;;6.47;3.75;;;;;;;21.16;76.57;99915.13;5053697;28;20049;-75
2021/07/29 04:16:35;;;;;;;7.60;4.03;;;;;;;21.19;76.23;99909.34;5054247;28;20087;-74
2021/07/29 04:19:03;;;;;;;9.10;4.65;;;;;;;21.65;73.65;99915.97;5053521;28;20040;-74
2021/07/29 04:21:31;;;;;;;6.88;3.50;;;;;;;23.18;65.83;99924.72;5052483;28;20061;-74
2021/07/29 04:24:02;;;;;;;7.18;3.90;;;;;;;23.82;62.73;99920.59;5053641;28;20048;-74
2021/07/29 04:26:30;;;;;;;6.55;3.47;;;;;;;24.57;59.80;99919.59;5053905;28;20041;-75
2021/07/29 04:28:58;;;;;;;6.82;3.92;;;;;;;24.79;58.55;99917.75;5053431;28;20095;-74
2021/07/29 04:31:30;;;;;;;4.82;3.10;;;;;;;25.36;56.84;99919.63;5053656;28;20079;-74
2021/07/29 04:33:58;;;;;;;7.13;3.30;;;;;;;25.13;57.51;99924.47;5053221;28;20120;-75
2021/07/29 04:36:27;;;;;;;6.70;3.47;;;;;;;25.52;55.71;99922.09;5053670;28;20069;-74
2021/07/29 04:38:57;;;;;;;7.75;3.85;;;;;;;25.77;55.21;99927.16;5053438;28;20553;-74
2021/07/29 04:41:25;;;;;;;9.77;3.60;;;;;;;25.89;54.80;99939.22;5053435;28;20091;-74
2021/07/29 04:43:55;;;;;;;7.90;3.58;;;;;;;26.09;54.10;99925.72;5053190;28;20124;-74
2021/07/29 04:46:26;;;;;;;5.80;3.60;;;;;;;25.91;54.45;99932.53;5053238;28;20041;-77
2021/07/29 04:48:59;;;;;;;5.88;3.35;;;;;;;26.22;53.66;99932.09;5052878;28;20063;-78
2021/07/29 04:51:27;;;;;;;7.50;3.47;;;;;;;26.51;52.61;99925.53;5053663;28;20045;-74
2021/07/29 04:53:55;;;;;;;5.40;3.28;;;;;;;26.07;54.17;99925.91;5053279;28;20435;-74
2021/07/29 04:56:23;;;;;;;6.32;3.78;;;;;;;26.17;53.93;99929.13;5053192;28;20044;-73
2021/07/29 04:58:51;;;;;;;6.30;3.63;;;;;;;25.69;55.04;99942.63;5052979;28;20499;-79
2021/07/29 05:01:20;;;;;;;4.90;3.40;;;;;;;25.86;55.05;99945.91;5053141;28;20099;-79
2021/07/29 05:03:49;;;;;;;5.63;3.53;;;;;;;26.29;53.33;99951.28;5053003;28;20052;-78
2021/07/29 05:06:19;;;;;;;6.00;3.50;;;;;;;26.56;52.76;99960.50;5053516;28;20041;-78
2021/07/29 05:08:47;;;;;;;5.78;3.70;;;;;;;26.09;54.59;99948.41;5053073;28;20456;-75
2021/07/29 05:11:16;;;;;;;4.70;3.20;;;;;;;25.97;54.54;99952.75;5053074;28;20052;-79
2021/07/29 05:13:44;;;;;;;4.97;3.40;;;;;;;26.56;53.38;99954.19;5053061;28;20048;-79
2021/07/29 05:16:12;;;;;;;8.32;3.72;;;;;;;25.64;55.51;99960.63;5052892;28;20057;-75
2021/07/29 05:18:40;;;;;;;5.53;3.33;;;;;;;26.18;53.70;99958.16;5052953;28;20099;-81
2021/07/29 05:21:09;;;;;;;5.63;3.38;;;;;;;26.35;52.80;99961.41;5052311;28;20537;-80
2021/07/29 05:23:39;;;;;;;6.93;3.55;;;;;;;26.52;52.27;99960.03;5053246;28;20506;-80
2021/07/29 05:26:07;;;;;;;6.55;3.60;;;;;;;26.07;52.80;99966.06;5052968;28;20450;-80
2021/07/29 05:28:35;;;;;;;5.18;3.50;;;;;;;26.74;51.52;99963.53;5052805;28;20468;-80
2021/07/29 05:31:09;;;;;;;5.97;3.75;;;;;;;27.11;49.61;99969.56;5052882;28;20037;-81
2021/07/29 05:33:37;;;;;;;5.70;3.40;;;;;;;27.23;49.32;99970.66;5052731;28;20041;-81
2021/07/29 05:36:06;;;;;;;5.47;3.10;;;;;;;26.69;49.89;99976.97;5052668;28;20045;-81
2021/07/29 05:38:35;;;;;;;4.32;2.92;;;;;;;25.89;52.32;99969.28;5052759;28;20491;-78
2021/07/29 05:41:09;;;;;;;6.20;3.20;;;;;;;26.39;50.97;99970.91;5052674;28;20404;-79
2021/07/29 05:43:38;;;;;;;6.03;3.80;;;;;;;26.16;51.97;99976.66;5053014;28;20040;-78
2021/07/29 05:46:10;;;;;;;6.15;3.22;;;;;;;26.27;51.64;99966.19;5054098;28;20049;-79
2021/07/29 05:48:40;;;;;;;4.70;3.35;;;;;;;26.01;52.56;99975.03;5056795;28;20048;-78
2021/07/29 05:51:08;;;;;;;5.85;3.28;;;;;;;25.95;53.15;99974.78;5056652;28;20068;-77
2021/07/29 05:53:37;;;;;;;6.80;3.50;;;;;;;26.29;52.69;99975.88;5055473;28;20041;-80
2021/07/29 05:56:07;;;;;;;5.55;3.13;;;;;;;26.52;52.13;99975.59;5056863;28;20049;-77
2021/07/29 05:58:35;;;;;;;5.60;3.40;;;;;;;26.15;52.45;99974.97;5057015;28;20052;-74
2021/07/29 06:01:08;;;;;;;6.40;3.63;;;;;;;26.85;50.70;99985.88;5056393;28;20522;-74
2021/07/29 06:03:37;;;;;;;5.60;3.42;;;;;;;27.00;50.29;99983.81;5056912;28;20041;-74
2021/07/29 06:06:06;;;;;;;4.75;3.10;;;;;;;27.38;49.20;99971.31;5056203;28;20076;-74
2021/07/29 06:08:34;;;;;;;9.15;3.35;;;;;;;27.04;49.73;99975.03;5056358;28;20044;-75
2021/07/29 06:11:06;;;;;;;6.40;3.50;;;;;;;27.54;48.32;99983.78;5056179;28;20486;-76
2021/07/29 06:13:37;;;;;;;4.35;2.90;;;;;;;27.10;48.44;99979.66;5056328;28;20491;-77
2021/07/29 06:16:09;;;;;;;5.55;3.20;;;;;;;27.23;48.33;99976.16;5056096;28;20499;-77
2021/07/29 06:18:47;;;;;;;8.10;3.38;;;;;;;27.72;46.96;99977.72;5056559;28;20045;-77
2021/07/29 06:21:16;;;;;;;7.25;3.40;;;;;;;27.47;47.40;99982.06;5056109;28;20503;-77
2021/07/29 06:23:44;;;;;;;7.57;3.03;;;;;;;27.48;47.59;99965.44;5056339;28;20045;-75
2021/07/29 06:26:14;;;;;;;7.43;3.53;;;;;;;26.62;49.98;99970.59;5056054;28;20060;-75
2021/07/29 06:28:42;;;;;;;5.32;3.17;;;;;;;27.02;49.42;99978.97;5056062;28;20049;-73
2021/07/29 06:31:10;;;;;;;5.63;3.20;;;;;;;26.62;50.64;99981.56;5055669;28;20051;-77
2021/07/29 06:33:39;;;;;;;6.57;3.47;;;;;;;26.78;50.08;99978.47;5056303;28;20049;-77
2021/07/29 06:36:08;;;;;;;5.97;3.47;;;;;;;27.24;48.76;99982.47;5055976;28;20361;-75
2021/07/29 06:38:37;;;;;;;6.70;3.60;;;;;;;27.49;47.93;99982.69;5055387;28;20120;-75
2021/07/29 06:41:06;;;;;;;5.07;3.10;;;;;;;28.12;46.32;99984.03;5055704;28;20045;-75
2021/07/29 06:43:36;;;;;;;5.97;3.10;;;;;;;27.21;48.73;99996.53;5054681;28;20060;-75
2021/07/29 06:46:05;;;;;;;6.45;3.40;;;;;;;28.11;46.55;99984.22;5055520;28;20040;-75
2021/07/29 06:48:34;;;;;;;8.27;4.00;;;;;;;28.88;43.69;99983.41;5054449;28;20156;-76
2021/07/29 06:51:03;;;;;;;5.88;3.10;;;;;;;28.80;44.05;99986.41;5055424;28;20045;-75
2021/07/29 06:53:31;;;;;;;8.30;3.55;;;;;;;28.94;44.05;99987.22;5055660;28;20411;-76
2021/07/29 06:56:00;;;;;;;5.53;3.22;;;;;;;28.90;43.33;99992.31;5055353;28;20476;-76
2021/07/29 06:58:29;;;;;;;6.35;3.22;;;;;;;29.24;42.66;99992.97;5054331;28;20052;-76
2021/07/29 07:01:02;;;;;;;5.45;3.10;;;;;;;28.61;44.00;100001.88;5055441;28;20045;-75
2021/07/29 07:03:31;;;;;;;9.23;3.03;;;;;;;29.22;42.48;100000.59;5054439;28;20081;-76
2021/07/29 07:06:00;;;;;;;4.57;2.95;;;;;;;28.68;44.43;100004.63;5055247;28;20041;-75
2021/07/29 07:08:28;;;;;;;4.82;3.13;;;;;;;27.50;47.18;100000.81;5055295;28;20127;-76
2021/07/29 07:10:58;;;;;;;5.43;2.92;;;;;;;26.49;50.12;100004.22;5054955;28;20063;-76
2021/07/29 07:13:26;;;;;;;4.72;3.03;;;;;;;25.77;51.98;100020.03;5055216;28;20075;-76
2021/07/29 07:15:55;;;;;;;4.88;2.65;;;;;;;25.48;53.06;100016.38;5055587;28;20041;-77
2021/07/29 07:18:24;;;;;;;6.15;3.58;;;;;;;25.35;53.62;100021.69;5053905;28;20099;-76
2021/07/29 07:20:52;;;;;;;5.65;3.38;;;;;;;25.31;53.80;99998.56;5054946;28;20041;-77
2021/07/29 07:23:20;;;;;;;5.90;3.38;;;;;;;25.00;54.75;100007.00;5055066;28;20052;-76
2021/07/29 07:25:49;;;;;;;6.65;3.50;;;;;;;25.33;52.98;100007.38;5055308;28;20111;-77
2021/07/29 07:28:17;;;;;;;5.38;3.03;;;;;;;25.60;52.97;100009.34;5055075;28;20041;-76
2021/07/29 07:30:45;;;;;;;5.70;3.28;;;;;;;25.71;52.69;100016.22;5055129;28;20037;-76
2021/07/29 07:33:13;;;;;;;6.03;3.65;;;;;;;25.44;52.41;100023.25;5054746;28;20444;-76
2021/07/29 07:35:43;;;;;;;6.28;3.28;;;;;;;25.29;53.05;100026.06;5054812;28;20447;-76
2021/07/29 07:38:13;;;;;;;4.93;3.42;;;;;;;25.31;53.11;100013.03;5054803;28;20045;-76
2021/07/29 07:40:42;;;;;;;6.45;3.28;;;;;;;25.49;53.59;100012.59;5054851;28;20045;-76
2021/07/29 07:43:10;;;;;;;6.53;3.60;;;;;;;25.30;52.86;100018.69;5054427;28;20045;-76
2021/07/29 07:45:39;;;;;;;6.25;3.20;;;;;;;25.30;52.45;100029.63;5054448;28;20048;-76
2021/07/29 07:48:09;;;;;;;7.05;3.33;;;;;;;25.23;53.00;100025.97;5054256;28;20041;-76
2021/07/29 07:50:38;;;;;;;6.97;3.42;;;;;;;25.16;53.32;100017.69;5054795;28;20045;-76
2021/07/29 07:53:08;;;;;;;6.03;3.17;;;;;;;25.42;52.85;100028.06;5054423;28;20041;-75
2021/07/29 07:55:36;;;;;;;5.28;3.03;;;;;;;25.51;52.01;100031.53;5054615;28;20554;-76
2021/07/29 07:58:05;;;;;;;13.00;3.72;;;;;;;25.49;52.16;100020.78;5054233;28;20048;-75
2021/07/29 08:00:33;;;;;;;6.68;3.30;;;;;;;25.42;52.27;100024.50;5054576;28;20037;-76
2021/07/29 08:03:01;;;;;;;5.47;3.20;;;;;;;25.69;52.57;100024.56;5054383;28;20127;-75
2021/07/29 08:05:29;;;;;;;4.95;3.40;;;;;;;25.88;52.20;100020.34;5054486;28;20051;-77
2021/07/29 08:07:59;;;;;;;5.20;3.15;;;;;;;25.85;51.53;100033.56;5054293;28;20372;-77
2021/07/29 08:10:29;;;;;;;7.03;3.38;;;;;;;25.89;52.42;100021.19;5053919;28;20051;-77
2021/07/29 08:12:57;;;;;;;4.65;2.88;;;;;;;26.06;49.77;100021.78;5054489;28;20071;-77
2021/07/29 08:15:25;;;;;;;5.03;3.45;;;;;;;25.92;51.00;100026.25;5054055;28;20044;-76
2021/07/29 08:17:53;;;;;;;7.45;3.75;;;;;;;25.87;51.36;100032.34;5054236;28;20369;-77
2021/07/29 08:20:24;;;;;;;6.90;3.60;;;;;;;25.86;50.67;100035.22;5053954;28;20072;-77
2021/07/29 08:22:53;;;;;;;7.18;3.60;;;;;;;25.88;51.62;100025.81;5054385;28;20124;-77
2021/07/29 08:25:22;;;;;;;5.55;3.55;;;;;;;26.25;50.52;100023.81;5053779;28;20045;-77
2021/07/29 08:27:52;;;;;;;6.30;3.17;;;;;;;26.42;49.42;100016.16;5053729;28;20405;-77
2021/07/29 08:30:22;;;;;;;5.00;3.03;;;;;;;26.39;48.88;100013.81;5053479;28;20037;-76
2021/07/29 08:32:52;;;;;;;5.07;2.95;;;;;;;26.23;48.86;100015.78;5053799;28;20102;-77
2021/07/29 08:35:20;;;;;;;5.25;3.10;;;;;;;26.24;48.12;100012.00;5053430;28;20080;-77
2021/07/29 08:37:50;;;;;;;5.28;3.22;;;;;;;26.38;47.38;100018.44;5053796;28;20045;-77
2021/07/29 08:40:20;;;;;;;5.57;3.20;;;;;;;26.39;48.39;100008.34;5053231;28;20496;-77
2021/07/29 08:42:49;;;;;;;5.07;2.97;;;;;;;26.49;47.56;100006.09;5053517;28;20405;-77
2021/07/29 08:45:19;;;;;;;6.65;3.00;;;;;;;26.39;49.23;100011.09;5053327;28;20044;-77
2021/07/29 08:47:49;;;;;;;4.20;2.88;;;;;;;26.49;48.48;99997.91;5053493;28;20083;-78
2021/07/29 08:50:18;;;;;;;6.40;3.13;;;;;;;26.62;49.14;100008.91;5051750;28;20515;-76
2021/07/29 08:52:46;;;;;;;5.82;3.08;;;;;;;26.69;48.57;100018.00;5053363;28;20128;-77
2021/07/29 08:55:14;;;;;;;7.70;3.00;;;;;;;26.67;47.48;100009.16;5052964;28;20045;-77
2021/07/29 08:57:42;;;;;;;5.07;3.00;;;;;;;26.95;47.52;100009.06;5053452;28;20438;-77
2021/07/29 09:00:13;;;;;;;4.85;2.70;;;;;;;27.13;46.93;100016.75;5053089;28;20040;-77
2021/07/29 09:02:43;;;;;;;5.40;3.00;;;;;;;27.09;46.75;100020.94;5053334;28;20135;-77
2021/07/29 09:05:15;;;;;;;6.22;2.70;;;;;;;27.09;45.78;100018.19;5053043;28;20100;-76
2021/07/29 09:07:45;;;;;;;4.50;2.55;;;;;;;26.96;45.55;100013.50;5053462;28;20119;-77
2021/07/29 09:10:21;;;;;;;7.53;3.00;;;;;;;27.04;45.26;100020.72;5052798;28;20088;-76
2021/07/29 09:13:10;;;;;;;4.55;3.00;;;;;;;27.11;46.21;100007.88;5053146;28;20041;-77
2021/07/29 09:15:40;;;;;;;5.13;2.95;;;;;;;27.25;46.13;100009.63;5053480;28;20041;-77
2021/07/29 09:18:10;;;;;;;3.90;2.70;;;;;;;27.16;45.22;100018.22;5052856;28;20072;-76
2021/07/29 09:20:38;;;;;;;6.78;2.90;;;;;;;26.93;44.32;100013.06;5052282;28;20157;-77
2021/07/29 09:23:17;;;;;;;4.95;2.60;;;;;;;27.02;45.35;100009.09;5052807;28;20110;-76
2021/07/29 09:25:47;;;;;;;4.50;2.72;;;;;;;27.00;45.33;100005.72;5052884;28;20059;-78
2021/07/29 09:28:36;;;;;;;4.15;2.47;;;;;;;27.30;45.02;99995.31;5052444;28;20137;-77
2021/07/29 09:31:19;;;;;;;5.20;2.97;;;;;;;27.25;45.32;100014.25;5051787;28;20060;-78
2021/07/29 09:33:57;;;;;;;4.85;2.88;;;;;;;27.12;45.71;100011.47;5053337;28;20071;-77
2021/07/29 09:36:25;;;;;;;4.57;2.80;;;;;;;27.08;44.51;100005.56;5052555;28;20045;-77
2021/07/29 09:39:16;;;;;;;4.13;2.72;;;;;;;26.91;44.97;100004.19;5052879;28;20045;-77
2021/07/29 09:41:44;;;;;;;4.38;2.60;;;;;;;27.13;43.84;100008.56;5051783;28;20064;-77
2021/07/29 09:44:14;;;;;;;4.40;2.72;;;;;;;27.27;44.25;100013.00;5052580;28;20041;-77
2021/07/29 09:46:43;;;;;;;5.68;2.60;;;;;;;27.24;43.15;100005.22;5052907;28;20099;-77
2021/07/29 09:49:16;;;;;;;5.82;2.58;;;;;;;27.42;43.21;100009.25;5052596;28;20124;-77
2021/07/29 09:51:44;;;;;;;5.00;2.80;;;;;;;27.17;43.75;100012.56;5051578;28;20477;-76
2021/07/29 09:54:12;;;;;;;3.90;2.55;;;;;;;27.37;43.17;100002.50;5052205;28;20045;-76
2021/07/29 09:56:42;;;;;;;4.25;2.30;;;;;;;27.27;42.85;100002.03;5052253;28;20091;-77
2021/07/29 09:59:18;;;;;;;4.82;2.42;;;;;;;27.16;43.64;99999.91;5052168;28;20051;-77
2021/07/29 10:01:47;;;;;;;5.38;2.80;;;;;;;27.33;44.04;100006.72;5052650;28;20045;-77
2021/07/29 10:04:23;;;;;;;3.50;2.40;;;;;;;27.35;42.98;99999.13;5052728;28;20410;-77
2021/07/29 10:06:54;;;;;;;7.25;2.47;;;;;;;27.37;43.31;100010.72;5052842;28;20037;-78
2021/07/29 10:09:23;;;;;;;5.93;2.70;;;;;;;27.57;43.17;99999.78;5051646;28;20392;-78
2021/07/29 10:11:58;;;;;;;5.53;2.80;;;;;;;27.58;43.48;99997.88;5052592;28;20072;-78
2021/07/29 10:14:46;;;;;;;5.07;2.97;;;;;;;27.65;43.02;99999.63;5052555;28;20053;-77
2021/07/29 10:17:15;;;;;;;4.72;2.70;;;;;;;27.73;42.34;99998.59;5052883;28;20041;-77
2021/07/29 10:20:20;;;;;;;4.43;2.75;;;;;;;27.89;42.04;99989.94;5052701;28;20128;-78
2021/07/29 10:22:50;;;;;;;5.65;2.90;;;;;;;27.75;42.27;100003.84;5049721;28;20057;-77
2021/07/29 10:25:18;;;;;;;5.82;2.95;;;;;;;27.53;42.44;100000.44;5052429;28;20045;-77
2021/07/29 10:28:21;;;;;;;4.93;2.50;;;;;;;27.70;41.00;99995.41;5052895;28;20044;-77
2021/07/29 10:30:54;;;;;;;5.95;2.85;;;;;;;27.73;41.58;100005.97;5052361;28;20049;-77
2021/07/29 10:33:24;;;;;;;5.15;2.97;;;;;;;28.02;41.58;99980.88;5055470;28;20045;-77
2021/07/29 10:35:54;;;;;;;5.15;2.90;;;;;;;28.09;40.63;99994.59;5056147;28;20558;-77
2021/07/29 10:38:48;;;;;;;4.63;2.60;;;;;;;27.70;40.02;99995.41;5055798;28;20068;-76
2021/07/29 10:41:42;;;;;;;4.93;2.90;;;;;;;27.86;40.61;99993.09;5055797;28;20059;-77
2021/07/29 10:44:57;;;;;;;4.35;2.65;;;;;;;27.78;41.01;99990.56;5055961;28;20083;-77
2021/07/29 10:47:44;;;;;;;4.10;2.42;;;;;;;28.15;40.92;99988.22;5055346;28;20045;-77
2021/07/29 10:50:15;;;;;;;5.18;2.78;;;;;;;28.18;40.02;99985.03;5055742;28;20432;-75
2021/07/29 10:52:50;;;;;;;4.63;2.78;;;;;;;28.30;40.16;99991.63;5055859;28;20448;-77
2021/07/29 10:55:21;;;;;;;4.35;2.60;;;;;;;28.02;40.27;99993.72;5055368;28;20041;-76
2021/07/29 10:58:14;;;;;;;5.05;2.95;;;;;;;28.15;40.52;99993.72;5055396;28;20057;-77
2021/07/29 11:00:52;;;;;;;4.78;2.80;;;;;;;28.37;39.79;99991.59;5055461;28;20488;-77
2021/07/29 11:03:22;;;;;;;5.72;2.55;;;;;;;28.25;38.67;99983.16;5055197;28;20496;-76
2021/07/29 11:06:03;;;;;;;3.80;2.40;;;;;;;28.29;39.06;99978.97;5055525;28;20488;-76
2021/07/29 11:08:46;;;;;;;4.20;2.50;;;;;;;28.17;37.35;99975.13;5055673;28;20033;-77
2021/07/29 11:11:14;;;;;;;4.68;2.83;;;;;;;28.37;38.34;99981.47;5055423;28;20377;-76
2021/07/29 11:13:46;;;;;;;4.50;2.67;;;;;;;28.61;38.07;99984.56;5055452;28;20081;-77
2021/07/29 11:16:16;;;;;;;5.15;2.67;;;;;;;28.49;38.61;99981.66;5055062;28;20056;-76
2021/07/29 11:18:58;;;;;;;3.85;2.40;;;;;;;28.62;38.33;99978.03;5055759;28;20384;-78
2021/07/29 11:21:27;;;;;;;7.93;2.85;;;;;;;28.47;39.50;99981.88;5054913;28;20059;-77
2021/07/29 11:23:59;;;;;;;5.65;2.60;;;;;;;28.46;37.99;99979.31;5055345;28;20045;-77
2021/07/29 11:26:42;;;;;;;3.75;2.22;;;;;;;28.58;38.27;99969.41;5055005;28;20102;-77
2021/07/29 11:29:11;;;;;;;;;;;;;;;28.63;38.20;99969.56;5055619;28;20052;-77
2021/07/29 11:31:40;;;;;;;3.72;2.38;;;;;;;28.73;38.26;99971.84;5055116;28;19921;-77
2021/07/29 11:34:13;;;;;;;3.92;2.35;;;;;;;28.74;36.75;99955.16;5055064;28;20125;-78
2021/07/29 11:36:52;;;;;;;4.78;2.60;;;;;;;28.79;37.30;99962.78;5055144;28;20051;-77
2021/07/29 11:39:21;;;;;;;5.78;2.40;;;;;;;28.72;36.18;99975.66;5054828;28;20047;-77
2021/07/29 11:41:56;;;;;;;4.82;2.63;;;;;;;28.57;36.74;99964.09;5054737;28;20041;-77
2021/07/29 11:44:37;;;;;;;4.53;2.63;;;;;;;28.86;37.55;99963.59;5054010;28;20511;-77
2021/07/29 11:47:05;;;;;;;4.68;2.65;;;;;;;28.79;37.42;99962.78;5055040;28;20056;-77